»·PEaware :: N822JH KMHV-KLAS

N822JH :: KMHV-KLAS

FLIGHT INFORMATION

Flight Status: Arrived
Operator: Privately registered:
United States
More flights under this callsign
Pilot: Bruno O. (13284)
Aircraft: PIPER PA-24 COMMANCHE
(PA24)
More flights by this aircraft type
Origin: KMHV Mojave
United States
Destination: KLAS Harry Reid Intl
United States
More flights between these airports :: More routes between these airports
Route: DAG CRESO5
File this flight plan on PilotEdge
Remarks:
Altitude:
(Current/Filed)
11,000ft
Speed:
(Current/Filed)
150kts
Departed: 01-Aug-23 02:05 PM
Arrived: 01-Aug-23 03:17 PM
Distance/Time
Traveled:
158nm/1:12
Distance/Time
To Go:
Arrived

Flight Plot

Page will automatically refresh every two minutes.

Flight plan parsing failed; only flown route is shown


Map Options




Map Legend


Flown Route
Filed Route
Departure Airport
Arrival Airport
Navaid (VOR, NDB)
Fix

Horizontal Profiles

Position Reports

Time Latitude Longitude Heading Altitude Ground
Speed
01-Aug-23 13:49 35.057264 -118.157731 176 2768ft 0kts
01-Aug-23 13:50 35.057264 -118.157731 176 2768ft 0kts
01-Aug-23 13:51 35.057264 -118.157731 176 2768ft 0kts
01-Aug-23 13:52 35.057264 -118.157731 176 2768ft 0kts
01-Aug-23 13:53 35.057264 -118.157731 176 2777ft 0kts
01-Aug-23 13:54 35.057264 -118.157731 176 2777ft 0kts
01-Aug-23 13:55 35.057264 -118.157731 176 2777ft 0kts
01-Aug-23 13:56 35.057642 -118.157045 91 2766ft 13kts
01-Aug-23 13:57 35.057613 -118.151628 92 2755ft 17kts
01-Aug-23 13:58 35.057638 -118.146877 90 2748ft 13kts
01-Aug-23 13:59 35.058105 -118.142578 4 2739ft 5kts
01-Aug-23 14:00 35.058392 -118.142579 359 2739ft 0kts
01-Aug-23 14:01 35.058392 -118.142579 359 2739ft 0kts
01-Aug-23 14:02 35.058392 -118.142579 359 2739ft 0kts
01-Aug-23 14:03 35.058392 -118.142579 359 2739ft 0kts
01-Aug-23 14:04 35.059178 -118.144236 270 2742ft 42kts
01-Aug-23 14:05 35.058658 -118.174504 274 3391ft 104kts
01-Aug-23 14:06 35.080399 -118.170708 69 4129ft 119kts
01-Aug-23 14:07 35.079183 -118.129195 102 5005ft 122kts
01-Aug-23 14:08 35.074046 -118.088053 98 5776ft 122kts
01-Aug-23 14:09 35.071003 -118.045858 96 6681ft 127kts
01-Aug-23 14:10 35.068080 -118.003083 96 7438ft 127kts
01-Aug-23 14:11 35.062668 -117.959856 95 8226ft 131kts
01-Aug-23 14:12 35.059315 -117.915294 87 9013ft 132kts
01-Aug-23 14:13 35.056872 -117.870634 96 9784ft 133kts
01-Aug-23 14:15 35.051710 -117.825858 97 10500ft 133kts
01-Aug-23 14:16 35.047370 -117.780645 92 10984ft 144kts
01-Aug-23 14:17 35.045467 -117.727176 88 10967ft 164kts
01-Aug-23 14:18 35.045227 -117.671819 91 10940ft 163kts
01-Aug-23 14:19 35.042142 -117.618116 88 10993ft 163kts
01-Aug-23 14:20 35.034821 -117.562247 104 10833ft 169kts
01-Aug-23 14:21 35.027753 -117.506366 91 10820ft 165kts
01-Aug-23 14:22 35.025189 -117.450453 86 10801ft 164kts
01-Aug-23 14:23 35.021312 -117.395237 94 10802ft 163kts
01-Aug-23 14:24 35.018252 -117.339898 91 10806ft 165kts
01-Aug-23 14:25 35.015097 -117.284224 91 10793ft 162kts
01-Aug-23 14:26 35.011371 -117.229228 90 10803ft 164kts
01-Aug-23 14:27 35.006049 -117.174218 93 10798ft 162kts
01-Aug-23 14:28 35.003075 -117.119107 92 10812ft 162kts
01-Aug-23 14:29 34.999198 -117.064182 94 10831ft 163kts
01-Aug-23 14:30 34.995401 -117.008625 95 10835ft 163kts
01-Aug-23 14:31 34.989599 -116.953772 95 10849ft 164kts
01-Aug-23 14:32 34.986681 -116.898047 93 10861ft 164kts
01-Aug-23 14:33 34.982991 -116.842881 95 10924ft 159kts
01-Aug-23 14:34 34.977198 -116.788425 94 10910ft 163kts
01-Aug-23 14:35 34.973595 -116.733354 93 10905ft 163kts
01-Aug-23 14:36 34.969390 -116.678421 99 10911ft 160kts
01-Aug-23 14:37 34.965391 -116.624307 91 10927ft 161kts
01-Aug-23 14:38 34.963916 -116.569553 85 10913ft 162kts
01-Aug-23 14:39 34.977452 -116.518159 51 10894ft 161kts
01-Aug-23 14:39 34.999548 -116.481377 56 10878ft 161kts
01-Aug-23 14:41 35.027942 -116.427659 60 10878ft 161kts
01-Aug-23 14:42 35.049600 -116.379733 65 10875ft 161kts
01-Aug-23 14:43 35.071540 -116.332197 62 10868ft 161kts
01-Aug-23 14:43 35.089578 -116.292333 59 10869ft 161kts
01-Aug-23 14:44 35.110629 -116.243962 63 10860ft 160kts
01-Aug-23 14:45 35.131828 -116.195884 71 10808ft 164kts
01-Aug-23 14:47 35.157910 -116.141145 66 10873ft 160kts
01-Aug-23 14:48 35.177939 -116.092223 61 10878ft 160kts
01-Aug-23 14:48 35.195206 -116.052090 66 10882ft 160kts
01-Aug-23 14:49 35.216487 -116.003939 61 10890ft 161kts
01-Aug-23 14:50 35.237808 -115.955866 58 10893ft 161kts
01-Aug-23 14:51 35.260690 -115.909361 66 10944ft 159kts
01-Aug-23 14:52 35.280184 -115.860423 65 10954ft 160kts
01-Aug-23 14:53 35.300930 -115.811836 65 10964ft 161kts
01-Aug-23 14:54 35.324876 -115.765647 50 10968ft 163kts
01-Aug-23 14:55 35.356273 -115.725578 46 10987ft 163kts
01-Aug-23 14:56 35.387124 -115.684397 52 10991ft 164kts
01-Aug-23 14:57 35.418068 -115.643487 48 11000ft 163kts
01-Aug-23 14:58 35.448843 -115.602250 50 11006ft 164kts
01-Aug-23 14:59 35.480203 -115.560988 50 11014ft 166kts
01-Aug-23 15:00 35.511321 -115.519117 50 11016ft 166kts
01-Aug-23 15:01 35.542147 -115.477757 50 11020ft 166kts
01-Aug-23 15:02 35.573352 -115.435897 50 11024ft 166kts
01-Aug-23 15:03 35.604628 -115.393847 50 11027ft 167kts
01-Aug-23 15:04 35.636060 -115.351534 50 11030ft 167kts
01-Aug-23 15:05 35.667433 -115.309243 50 11035ft 166kts
01-Aug-23 15:06 35.698659 -115.267096 50 11042ft 167kts
01-Aug-23 15:07 35.730009 -115.224812 50 11047ft 167kts
01-Aug-23 15:08 35.764253 -115.187659 2 10898ft 177kts
01-Aug-23 15:09 35.815096 -115.194907 351 10320ft 188kts
01-Aug-23 15:10 35.868064 -115.202415 352 9501ft 196kts
01-Aug-23 15:11 35.921173 -115.210871 347 8515ft 188kts
01-Aug-23 15:12 35.971769 -115.219736 354 7339ft 172kts
01-Aug-23 15:13 36.011480 -115.207669 26 5440ft 133kts
01-Aug-23 15:14 36.042046 -115.189256 23 3556ft 102kts
01-Aug-23 15:15 36.065331 -115.176248 27 2511ft 81kts
01-Aug-23 15:16 36.081037 -115.167085 25 2183ft 18kts
01-Aug-23 15:17 36.082620 -115.168465 254 2182ft 8kts
01-Aug-23 15:18 36.081462 -115.170676 260 2182ft 7kts
01-Aug-23 15:19 36.080928 -115.171021 91 2182ft 0kts
01-Aug-23 15:20 36.080928 -115.171021 91 2182ft 0kts

Navigation Log

Ident Type
Flight plan parsing failed, navigation log unavailable